Flight Track Log - Related Links

Times and Time Zones

All times are in EST time to prevent confusion due to time zone crossing. See the SWA208 flight status page for this flight to view local times or setup timezone preferences in your user account.

Time Position Orientation Groundspeed Altitude Reporting Facility
EST Latitude Longitude Course Direction KTS MPH feet Rate Location/Type
Thu 01:20:15 AM 37.6500 -122.3667 228° Southwest 172 198 2,000  Level Northern Cal TRACON
Thu 01:21:15 AM 37.6667 -122.4167 293° West 243 280 6,700 4,300 Climbing Northern Cal TRACON
Thu 01:22:15 AM 37.5833 -122.4333 189° South 290 334 10,600 4,000 Climbing Northern Cal TRACON
Thu 01:23:15 AM 37.5000 -122.4500 189° South 342 394 14,700 3,650 Climbing Northern Cal TRACON
Thu 01:24:15 AM 37.4333 -122.3500 130° Southeast 398 458 17,900 1,969 Climbing Northern Cal TRACON
Thu 01:25:00 AM 37.2466 -121.9492 228° Southwest  Level Estimated
Thu 01:25:26 AM 37.3478 -122.2306 132° Southeast 406 467 19,000  Level Oakland Center
Thu 01:26:27 AM 37.2681 -122.1247 133° Southeast 415 478 21,900 2,607 Climbing Oakland Center
Thu 01:27:28 AM 37.1858 -122.0119 132° Southeast 434 499 24,300 2,281 Climbing Oakland Center
Thu 01:28:28 AM 37.0950 -121.8892 133° Southeast 474 545 26,500 2,479 Climbing Oakland Center
Thu 01:29:29 AM 36.9769 -121.7381 134° Southeast 507 583 29,300 2,410 Climbing Oakland Center
Thu 01:30:30 AM 36.8797 -121.6058 133° Southeast 516 594 31,400 2,066 Climbing Oakland Center
Thu 01:31:31 AM 36.7742 -121.4625 133° Southeast 537 618 33,500 2,361 Climbing Oakland Center
Thu 01:32:32 AM 36.6750 -121.3261 132° Southeast 531 611 36,200 1,721 Climbing Oakland Center
Thu 01:33:33 AM 36.5753 -121.1958 134° Southeast 522 601 37,000 397 Climbing Oakland Center
Thu 01:34:33 AM 36.4764 -121.0642 133° Southeast 521 600 37,000  Level Oakland Center
Thu 01:35:34 AM 36.3772 -120.9336 133° Southeast 519 597 37,000  Level Oakland Center
Thu 01:36:35 AM 36.2792 -120.8019 133° Southeast 520 598 37,000  Level Oakland Center
Thu 01:37:36 AM 36.1806 -120.6717 133° Southeast 519 597 37,000  Level Oakland Center
Thu 01:38:37 AM 36.0817 -120.5419 133° Southeast 518 596 37,000  Level Oakland Center
Thu 01:39:38 AM 35.9817 -120.4119 134° Southeast 520 598 37,000  Level Oakland Center
Thu 01:40:38 AM 35.8822 -120.2825 133° Southeast 518 596 37,000  Level Oakland Center
Thu 01:41:39 AM 35.7822 -120.1525 133° Southeast 518 596 37,000  Level Oakland Center
Thu 01:42:40 AM 35.6819 -120.0242 134° Southeast 517 595 37,000  Level Oakland Center
Thu 01:43:41 AM 35.5706 -119.9114 141° Southeast 513 590 37,000  Level Oakland Center
Thu 01:44:42 AM 35.4533 -119.8131 146° Southeast 507 583 37,000  Level Los Angeles Center
Thu 01:45:43 AM 35.3386 -119.7131 145° Southeast 505 581 37,000  Level Los Angeles Center
Thu 01:46:44 AM 35.2233 -119.6133 145° Southeast 504 580 37,000 -298 Level Los Angeles Center
Thu 01:47:44 AM 35.1075 -119.5153 145° Southeast 505 581 36,400 -942 Descending Los Angeles Center
Thu 01:48:45 AM 34.9908 -119.4139 145° Southeast 512 589 35,100 -2,607 Descending Los Angeles Center
Thu 01:49:46 AM 34.8714 -119.3117 145° Southeast 519 597 31,100 -3,689 Descending Los Angeles Center
Thu 01:50:47 AM 34.7497 -119.2094 145° Southeast 528 608 27,600 -3,273 Descending Los Angeles Center
Thu 01:51:47 AM 34.6325 -119.1125 146° Southeast 506 582 24,500 -3,074 Descending Los Angeles Center
Thu 01:52:48 AM 34.5244 -119.0183 144° Southeast 487 560 21,400 -3,246 Descending Los Angeles Center
Thu 01:53:49 AM 34.3992 -118.9183 147° Southeast 450 518 17,900 -3,174 Descending Los Angeles Center
Thu 01:54:49 AM 34.2978 -118.8592 154° Southeast 409 471 15,000 -2,727 Descending Los Angeles Center
Thu 01:55:50 AM 34.1956 -118.8214 163° South 387 445 12,400 -1,770 Descending Los Angeles Center
Thu 01:56:51 AM 34.1014 -118.7869 163° South 359 413 11,400 -1,190 Descending Los Angeles Center
Thu 01:57:51 AM 34.0353 -118.7167 139° Southeast 327 376 10,000 -992 Descending Los Angeles Center
Thu 01:58:52 AM 34.0247 -118.6122 97° East 315 362 9,400 -1,024 Descending Los Angeles Center
Thu 01:59:54 AM 34.0150 -118.5117 97° East 302 348 7,900 -1,475 Descending Los Angeles Center
Thu 02:00:54 AM 34.0142 -118.4175 91° East 292 336 6,400 -1,785 Descending Los Angeles Center
Thu 02:01:55 AM 34.0275 -118.3228 80° East 286 329 4,300 -1,736 Descending Los Angeles Center
Thu 02:02:55 AM 34.0392 -118.2350 81° East 274 315 2,900 -843 Descending Los Angeles Center
Thu 02:03:56 AM 34.0108 -118.1947 130° Southeast 231 266 2,600 -344 Descending Los Angeles Center
Thu 02:04:57 AM 33.9772 -118.2344 224° Southwest 185 213 2,200 -347 Descending Los Angeles Center
Thu 02:05:57 AM 33.9639 -118.2922 254° West 185 213 1,900 -545 Descending Los Angeles Center
Thu 02:06:58 AM 33.9583 -118.3456 263° West 173 199 1,100 -744 Descending Los Angeles Center
Thu 02:07:58 AM 33.9542 -118.3922 264° West 156 180 400 -700 Descending Los Angeles Center
Thu 02:09:00 AM 33.9333 -118.4000 228° Southwest  Level FlightAware Approximate
Thu 02:16:00 AM 33.9425 -118.4081 228° Southwest  Level Estimated

Login

Don't have an account? Register now (free) for customized features, flight alerts, and more!